Deprecated: Methods with the same name as their class will not be constructors in a future version of PHP; flygplats has a deprecated constructor in D:\WebsitesNoSync\JulaAirPROD\vaderkarta\flygplats.class.php on line 3
Väderkarta

Håll muspekaren över respektive flygplats för att se aktuella METAR och TAF.
Informationen kommer från Aviation Weather Center och vi tar inget ansvar för ev fel.

whatever whatever

I=ILS ((min200ft)/550m), L=LOC(min250ft/800m), V=VOR(min300ft/800m), N=NDB(min300ft/800m), G=GPS, C=CIRC(min500ft/1600m),
Takeoff 500m, rwy lgt 250m, ctr lgt 200m, multi RVR 150m   RWY


SWEDEN

AirportMETARTAF
Arvidsjaur (I12/I30) ESNX 261550Z AUTO 00000KT 0600 R30/1900D FZFG OVC002/// M01/M01 Q0998
Borlänge (I32/V14) ESSD 261550Z 24009KT 9999 BKN037 09/04 Q1004 TAF ESSD 261130Z 2612/2616 24011KT 9999 SCT030
Bromma (I12/I30) ESSB 261550Z 22005KT 9999 FEW035 09/07 Q1006 TAF ESSB 261430Z 2615/2621 24007KT CAVOK
Gällivare (I30/N12) ESNG 261550Z 34004KT 9999 SCT011 BKN024 M03/M05 Q0999 TAF ESNG 261430Z 2615/2618 VRB02KT 9000 -SN BKN015 TEMPO 2615/2618 2000 VV006
Halmstad (I19/N01) ESMT 261550Z 24008KT CAVOK 09/08 Q1013 TAF ESMT 261400Z 2615/2619 26012KT 9999 SCT020
Hemavan (I33/?15) B ESUT 261550Z AUTO VRB02KT 2000 DZ OVC011/// 01/01 Q0998
Jönköping (I19/V01) ESGJ 261550Z AUTO 23006KT 9999 NCD 07/06 Q1010 TAF ESGJ 261130Z 2612/2615 23007KT 9999 FEW010 BKN025 TEMPO 2612/2615 BKN030TCU
Kalmar (I16/V34) ESMQ 261550Z 22006KT CAVOK 10/08 Q1012 TAF ESMQ 261430Z 2615/2619 24007KT CAVOK PROB40 2615/2619 BKN030TCU
Karlsborg (VFR 06/24) ESIA 261550Z AUTO 24008KT 9999 NCD 08/06 Q1009 TAF ESIA 261130Z 2612/2614 24008G18KT 9999 SCT025 RMK MIL
Karlstad (I03/I21) ESOK 261550Z AUTO 24010KT 9999 NCD 08/05 Q1007 TAF ESOK 261130Z 2612/2615 23013KT 9999 FEW025
Kiruna (I21/V03) ESNQ 261550Z 36003KT 9999 SCT006 OVC009 M05/M06 Q0999 TAF ESNQ 261430Z 2615/2618 04004KT 9000 -SN SCT008 BKN015 TEMPO 2615/2618 2000 SN VV004
Kramfors (I35/L17) ESNK 261550Z AUTO 33004KT 9999 SCT010/// 04/04 Q1002 TAF ESNK 261130Z 2612/2616 35004KT 9999 SCT005 PROB40 2612/2616 0500 FG VV002
Kristianstad (I19/N01) ESMK 261550Z AUTO 24005KT 210V270 9999 SCT049/// 10/07 Q1014 TAF ESMK 261100Z 2612/2615 25008KT 9999 BKN020 TEMPO 2612/2615 SHRA SCT015CB
Landvetter (I03/I21) ESGG 261550Z 23009KT 9999 SCT015 08/07 Q1011 TAF ESGG 261130Z 2612/2712 25010KT 9999 BKN020 TEMPO 2612/2620 BKN013 BKN020TCU BECMG 2620/2622 19010KT TEMPO 2700/2712 2000 RADZ BKN003
Linköping-SAAB (I11/I29) ESSL 261550Z 24005KT 210V270 CAVOK 09/05 Q1009 TAF ESSL 261430Z 2615/2617 25009KT 9999 SCT035
Ljungbyhed (I29/V11) ESTL 261550Z 23005KT CAVOK 10/07 Q1014 TAF ESTL 261100Z 2612/2615 24008KT 9999 SCT020 TEMPO 2612/2615 SHRA SCT020CB
Luleå (I14/I32) ESPA 261550Z 33006KT 5000 OVC003 01/00 Q0999 TAF ESPA 261430Z 2615/2622 34005KT 5000 -RASN BKN012 TEMPO 2615/2619 2000 -SN BKN004
Lycksele (I14/L32) ESNL 261550Z AUTO 14002KT 1000 R14/P2000N R32/P2000N BR FEW001/// SCT044/// BKN061/// 01/01 Q1000 REUP
Norrköping (I09/I27) ESSP 261550Z AUTO 24009KT 9999 NCD 08/05 Q1008 TAF ESSP 261130Z 2612/2615 23008KT 9999 SCT030 TEMPO 2612/2615 SCT025TCU
Ronneby (I19/N01) ESDF 261550Z 26004KT 9999 FEW030 10/08 Q1013 TAF COR ESDF 261435Z 2615/2624 24005KT 9999 BKN020 TEMPO 2615/2618 -SHRA BKN010 BKN040TCU PROB30 2618/2621 3000 BR NSC PROB30 2621/2624 1500 BCFG NSC RMK MIL
Skavsta (I26/L08) ESKN 261550Z 23009KT CAVOK 08/06 Q1008 TAF AMD ESKN 261148Z 2612/2712 21006KT 9999 BKN006 BECMG 2612/2613 SCT030 TEMPO 2612/2617 SCT025TCU BECMG 2706/2708 RA TEMPO 2708/2712 -RA BKN009
Skelefteå (I28/V10) ESNS 261550Z 23003KT 3000 R10/P2000N R28/P2000N -DZ FEW010 BKN037 OVC053 01/01 Q1000 TAF ESNS 261430Z 2615/2618 26004KT 0300 FG VV002 TEMPO 2615/2618 6000 RADZ SCT004 BKN020
Skövde (N01/I19) ESGR 261550Z AUTO 22007KT 9999 NCD 09/06 Q1009
Stockholm-Arlanda (I01LR/I19LR L08/I26) ESSA 261550Z 24011KT CAVOK 09/05 Q1005 NOSIG TAF ESSA 261130Z 2612/2712 22008KT 9999 SCT020 BECMG 2706/2708 RA TEMPO 2708/2712 -RA BKN006
Sturup (I17/I35) ESMS 261550Z 22008KT 9999 SCT030 09/07 Q1015 TAF ESMS 261101Z 2612/2712 23010KT 9999 SCT020 TEMPO 2612/2617 SHRA SCT020CB PROB40 2622/2701 0800 FG VV002 BECMG 2701/2703 2500 -RADZ BKN006 TEMPO 2703/2706 3000 RADZ BR BKN004 BECMG 2706/2708 7000 BKN012 TEMPO 2708/2712 4000 BR BKN007
Sundsvall (I16/I34) ESNN 261550Z AUTO VRB01KT 0200 R16/1000N R34/P2000N BCFG NCD 04/04 Q1002 TAF ESNN 261430Z 2615/2622 32003KT CAVOK PROB40 2619/2622 0400 FG VV002
Sveg-ESND (L09)B ESND 261550Z AUTO 28004KT 9999 FEW082/// 05/01 Q1002
Såtenäs (I19/N01) ESIB 261550Z 24013KT CAVOK 09/07 Q1009 TAF ESIB 261430Z 2615/2624 23012KT 9999 FEW025 PROB30 TEMPO 2618/2624 BKN013 RMK MIL
Torsby (L16/L34) ESST 261550Z AUTO 28005KT 240V310 9999 NCD 09/05 Q1006
Trollhättan (I33/N15) ESGT 261550Z AUTO 23007KT 190V250 9999 -RA FEW024/// SCT049/// 09/06 Q1010 TAF ESGT 261130Z 2612/2614 22010KT 9999 BKN025 PROB40 2612/2614 BKN020TCU
Umeå (I14/I32) ESNU 261550Z VRB02KT 9999 OVC046 02/02 Q1000 TAF ESNU 261430Z 2615/2624 VRB03KT CAVOK PROB40 2615/2621 1200 BR DZ BKN003
Vilhelmina (I28/N10) B ESNV 261550Z AUTO 00000KT 1200 R10/P2000N R28/P2000N BR NCD 01/M01 Q1000
Visby (I21/V03) ESSV 261550Z 23010KT 9999 FEW026 09/08 Q1010 TAF ESSV 261420Z 2615/2624 25010KT 9999 SCT030 TEMPO 2615/2624 BKN012 RMK MIL
Västerås (I19/V01) ESOW 261550Z AUTO 22007KT 9999 FEW031/// 10/05 Q1006 TAF ESOW 261130Z 2612/2615 22010KT 9999 SCT018
Växjö (I19/L01) ESMX 261550Z 22006KT 9999 FEW021 08/07 Q1012 TAF ESMX 261130Z 2612/2616 22008KT 9999 BKN007 BECMG 2612/2614 BKN030 TEMPO 2612/2616 BKN020TCU
Ängelholm (I14/N32) ESTA 261550Z 24009KT 9999 FEW015 10/08 Q1014 TAF ESTA 261400Z 2615/2619 24010KT 9999 SCT020
Örebro (I01/I19) ESOE 261550Z 22010KT CAVOK 10/06 Q1007 TAF ESOE 261430Z 2615/2621 25012KT 9999 SCT025 PROB40 2620/2621 2000 BCFG
Örnsköldsvik (I12/V30) ESNO 261550Z 32004KT 9999 SCT032 BKN053 03/03 Q1000 TAF ESNO 261430Z 2615/2619 26005KT 9999 SCT030 PROB40 2615/2619 2000 BR DZ BKN006
Östersund (I12/V30) ESNZ 261550Z 25007KT 9999 FEW032 BKN049 04/04 Q1002 REDZ TAF ESNZ 261530Z 2616/2619 VRB02KT 9999 -DZ BKN030 TEMPO 2616/2619 0100 FG VV001

NORDIC

AirportMETARTAF
Alta (I11) B ENAT 261550Z VRB03KT 9999 FEW022 BKN046 M00/M05 Q1004 RMK WIND 700FT 09011KT TAF ENAT 261400Z 2615/2621 16005KT 9999 FEW020 BKN040
Andoya (L14/V21/V32) ENAN 261550Z 11013KT 9999 BKN007 02/01 Q0998 TAF AMD ENAN 2612/2712 10008KT 9999 -RADZ SCT008 BKN012 TEMPO 2612/2706 2500 RASN VV004 BECMG 2706/2709 12018KT SCT012 BKN020
Aro (I07/L25) B ENML 261550Z 29008KT 260V330 9999 -SHRA FEW025CB BKN050 09/05 Q1002 TAF ENML 261400Z 2615/2620 09007KT 9999 FEW030 BKN060 PROB30 TEMPO 2615/2617 SHRA BKN025CB
Banak (I35/L17) ENNA 261550Z 04010KT 9999 SCT028 BKN037 00/M04 Q1005 RMK WIND 1800FT 08017KT TAF ENNA 2612/2712 02008KT 9999 FEW025 BKN035 PROB40 TEMPO 2700/2712 12015G25KT
Bardufors (I28/L10) B ENDU 261550Z 07004KT 360V120 1500 R10/P2000N R28/P2000N SN VV008 M02/M02 Q0999 TEMPO 0700 SN VV006 RMK WIND 1100FT 08009KT WIND 2200FT 11017KT TAF ENDU 2612/2712 12009KT 6000 -SN FEW005 BKN025 TEMPO 2612/2709 0700 SN VV006 TEMPO 2703/2712 12015G25KT
Bergen (I17/I35) ENBR 261550Z 15012KT 9999 FEW008 SCT015TCU BKN020 09/07 Q1005 NOSIG RMK WIND 1200FT 16018KT TAF ENBR 2612/2712 15015KT 9999 -SHRA FEW015TCU BKN025 BECMG 2617/2619 16020G30KT BKN012 BECMG 2620/2622 2500 RADZ BR SCT004 BKN008 BECMG 2701/2703 25012KT BECMG 2704/2706 8000 NSW SCT008 BKN015 TEMPO 2706/2712 BKN008 BECMG 2710/2712 19012KT
Billund (I09/I27) EKBI 261550Z AUTO 19005KT 9999 BKN150/// 10/09 Q1014 TAF EKBI 261100Z 2612/2712 24010KT 9999 BKN020 TEMPO 2612/2614 SHRA SCT020CB BECMG 2620/2623 3000 -RADZ BR BKN006 TEMPO 2623/2712 24015G25KT 8000 -DZ SCT010 BKN015
Björneborg (I30/V12) EFPO 261550Z AUTO 22008KT 190V260 9999 OVC008 09/07 Q1004 TAF EFPO 261432Z 2615/2618 21009KT 9999 OVC008 BECMG 2615/2617 BKN025
Bodö (I07/I25) ENBO 261550Z 21010KT 9999 -SHRA FEW008 SCT012 BKN025 07/06 Q0998 TEMPO 4000 SHRA BKN012CB TAF ENBO 2612/2712 20008KT 9999 -SHRA FEW008 BKN025 TEMPO 2612/2703 23015G25KT 4000 SHRA BKN012CB BECMG 2702/2704 09012KT
Bornholm (I11/I29) EKRN 261550Z AUTO 26014KT 9999 FEW023/// BKN069/// 11/10 Q1016 TAF AMD EKRN 261501Z 2615/2623 26015KT 9999 SCT015 TEMPO 2615/2619 SHRA BKN008 SCT015CB
Bronoysund (L04) ENBN 261550Z 23009KT 9999 SHRA FEW006 SCT012CB BKN025 08/07 Q1000 TAF ENBN 261400Z 2615/2624 20012KT 9999 -SHRA FEW012CB BKN030 TEMPO 2615/2621 22015G25KT 4500 SHRAGS BKN012
Enontekis (I21/V03) EFET 261550Z AUTO 04007KT 4700 -SN FEW011 OVC031 M04/M05 Q1000
Esbjerg (I08/I26) EKEB 261550Z AUTO 20006KT 9999 BKN120/// 11/09 Q1014 TAF EKEB 261401Z 2615/2621 24010KT 9999 SCT020 BECMG 2620/2621 4000 -RADZ BKN008
Faroar (L13/L31) B EKVG 261550Z AUTO 11027KT 2200 +RA OVC007/// 09/09 Q0982 RERASN TAF EKVG 261421Z 2615/2621 14025G35KT 3000 RADZ BR OVC010 TEMPO 2615/2617 0800 RADZ FG OVC004 BECMG 2617/2619 20015G25KT 9999 -RA BKN015
Hammerfest (L05/L23) ENHF 261550Z 08020KT 9999 VCSH DRSN FEW015 BKN028 M00/M03 Q1005 RESHSN RMK WIND 1254FT 11033KT TAF ENHF 261400Z 2615/2624 06018KT 9999 FEW012 BKN030 TEMPO 2615/2624 11020G30KT 4000 -SHSN DRSN VV012
Haugesund (I14/V32) ENHD 261550Z 19012KT 9999 -SHRA FEW008 SCT014 BKN022 11/08 Q1005 TAF ENHD 261400Z 2615/2620 18015KT 9999 -SHRA SCT015 BKN025 BECMG 2618/2620 16022G32KT 4000 RA BR BKN009
Helsinki (I04/I15/I22/V33) EFHK 261550Z 21010KT 9999 OVC011 09/07 Q1006 TEMPO OVC009 TAF EFHK 261430Z 2615/2715 22012KT 9999 BKN012 BECMG 2615/2617 BKN007 TEMPO 2617/2621 4500 -DZRA BKN004 BECMG 2621/2623 SCT020 BECMG 2704/2706 28004KT BKN005 TEMPO 2706/2709 3000 BR BKN003
Hoybuktmoen (I24/V06) ENKR 261550Z 10015KT 9999 FEW014 BKN055 M01/M04 Q1005 RMK WIND 731FT 10017KT TAF ENKR 261400Z 2615/2624 10012KT 9999 FEW012 BKN030 PROB30 TEMPO 2615/2624 2000 SN VV008
Ivalo (I22/N22) EFIV 261550Z 04010KT 9999 -SN OVC007 M02/M03 Q1001 TAF EFIV 261424Z 2615/2618 05007KT 8000 -SN BKN006 TEMPO 2615/2618 2000 SN SCT005 BKN020 PROB30 2615/2618 -FZDZ
Jyvaskyla (I30/V12) EFJY 261550Z AUTO 20008KT 9999 OVC006 08/07 Q1003 TAF EFJY 261430Z 2615/2715 19008KT 9999 OVC006 BECMG 2618/2620 BKN010 BECMG 2702/2704 BKN006 TEMPO 2704/2708 4000 BR BKN004 BECMG 2708/2710 BKN010
Karup (I09/I27) EKKA 261550Z 21006KT 180V250 9999 -SHRA FEW022TCU SCT040 10/08 Q1013 TAF EKKA 261413Z 2615/2715 24008KT 9999 SCT020 BKN050 BECMG 2616/2619 20008KT FM262000 20008KT 8000 BKN015 TEMPO 2620/2705 3000 RADZ BR BKN008 BECMG 2704/2707 24012G25KT TEMPO 2705/2715 5000 -DZRA BR BKN012
Kastrup (I04/I12/I22/I30) EKCH 261550Z AUTO 23006KT 9999 SCT027/// 10/09 Q1015 TEMPO FEW020CB TAF EKCH 261101Z 2612/2712 24012KT 9999 SCT020 TEMPO 2612/2616 SHRA SCT020CB BECMG 2700/2702 4000 -RADZ BKN008 TEMPO 2702/2705 5000 RADZ BR SCT008 BKN012 BECMG 2705/2707 8000 BKN020 TEMPO 2707/2712 BKN012
Kemi (I18/N36) EFKE 261550Z AUTO 34005KT 9999 -SHRA BKN002 OVC009 01/01 Q0998 TAF EFKE 261424Z 2615/2624 34005KT 8000 BKN003 TEMPO 2615/2618 2000 BR BECMG 2618/2620 BKN005
Kittila (I34/L16) EFKT 261550Z AUTO 01008KT 7000 -SN FEW008 OVC028 M03/M04 Q0999 TAF EFKT 261424Z 2615/2619 05006KT 8000 -SN FEW012 BKN020 TEMPO 2615/2619 1300 SN VV009
Kristiansand (I04/I22) ENCN 261550Z 24003KT 9999 FEW025 09/07 Q1009 TAF ENCN 261400Z 2615/2622 24008KT 9999 FEW008 BKN020 BECMG 2619/2621 OVC012
Kristiansund (I07/V25) ENKB 261550Z 27004KT 9999 -RA SCT037 BKN045 08/05 Q1002 RMK WIND 745FT 24009KT TAF ENKB 261400Z 2615/2621 21008KT 9999 FEW025 BKN050 PROB30 TEMPO 2615/2617 24015G25KT SHRA BKN018CB BECMG 2618/2621 13010KT
Kruunupyy (I19/N01) EFKK 261550Z 23006KT 200V270 9999 VCSH OVC003 08/07 Q1000 TAF AMD EFKK 261445Z 2615/2624 26007KT 9999 OVC006 TEMPO 2615/2618 OVC004 PROB40 2615/2618 5000 -DZ TEMPO 2618/2621 BKN010
Kuopio (I33/V15) EFKU 261550Z AUTO 22009KT 9999 OVC009 08/07 Q1002 TAF EFKU 261427Z 2615/2715 23010KT 9999 -SHRA OVC007 TEMPO 2615/2619 5000 OVC004 TEMPO 2619/2704 4000 -RADZ SCT006 BKN012 BECMG 2702/2704 29008KT TEMPO 2704/2708 3000 RADZ BKN004 TEMPO 2708/2715 FEW007 OVC015
Leknes (L03) ENLK 261550Z VRB02KT 4000 DZ BR FEW001 BKN006 06/06 Q0997
Mariehamn (I21/V03) EFMA 261550Z AUTO 21008KT 180V240 CAVOK 09/08 Q1005 TAF EFMA 261432Z 2615/2624 21009KT 9999 FEW005
Moirana (L14/32) ENRA 261550Z 09004KT 9999 VCSH FEW004 SCT014 BKN025 04/04 Q0999 TAF ENRA 261400Z 2615/2621 VRB03KT 9999 -SHRA FEW002 BKN020 TEMPO 2615/2621 SHRA SCT002 BKN012CB
Namsos (L25/N07) ENNM 261550Z VRB03KT 9999 VCSH FEW010 SCT023 BKN030 07/05 Q1002
Narvik (I17/V35) B ENEV 261550Z 15009KT 100V190 9999 VCSH FEW008 BKN015 02/01 Q0997 RMK WIND 1400FT 15015KT TAF ENEV 261400Z 2615/2621 15008KT 6000 -DZRA FEW002 BKN015 TEMPO 2615/2621 3000 DZRA BKN004
Notodden (L12) B ENNO 261550Z 00000KT CAVOK 07/04 Q1008
Odense (I24/06) EKOD 261550Z 21006KT 180V240 9999 FEW020 BKN200 10/09 Q1015 TAF EKOD 261100Z 2612/2616 24010KT 9999 BKN020 TEMPO 2612/2615 SHRA SCT020CB
Orland (I15/I33) ENOL 261550Z 20006KT 9999 FEW020 BKN040 08/06 Q1002 NOSIG TAF ENOL 2612/2712 23012KT 9999 FEW020TCU BKN030 TEMPO 2612/2614 25018G28KT TEMPO 2612/2620 SHRA SCT012CB BKN020 BECMG 2618/2621 15015KT TEMPO 2704/2708 RA BKN014 BECMG 2705/2707 24025G35KT
Oslo (I01/I19) ENGM 261550Z 18007KT CAVOK 07/03 Q1006 NOSIG TAF ENGM 2612/2712 20007KT 9999 FEW015 BECMG 2700/2702 BKN008 TEMPO 2702/2707 3000 RADZ BR OVC004 BECMG 2707/2709 SCT020
Pammerfors (I24/V06) EFTP 261550Z AUTO 23010KT 9999 OVC005 08/07 Q1004 TAF EFTP 261430Z 2615/2715 22008KT 9999 OVC007 BECMG 2615/2617 FEW020 BECMG 2621/2623 BKN005 PROB30 2623/2707 0500 FG VV002 BECMG 2708/2710 FEW030
Roskilde (I11/I21/03/29) EKRK 261550Z AUTO 23006KT 9999 FEW029/// BKN060/// 10/08 Q1015 TAF EKRK 261401Z 2615/2624 24010KT 9999 SCT025 TEMPO 2615/2616 SHRA SCT020CB
Rovaniemi (I21/V03) EFRO 261550Z AUTO 34004KT 310V010 3900 -SN FEW003 OVC011 M00/M00 Q0997 TAF AMD EFRO 261451Z 2615/2715 01005KT 5000 -SN BKN004 PROB40 2615/2616 -FZRA TEMPO 2615/2624 1200 SN SCT003 OVC020 BECMG 2700/2702 9999 BKN005 PROB40 2702/2709 1500 BR BKN002 BECMG 2709/2711 5000 TEMPO 2711/2715 2500 BKN004
Rygge (I30/N12) ENRY 261550Z 21003KT 170V240 CAVOK 09/03 Q1008 TAF ENRY 2612/2712 23008KT CAVOK BECMG 2623/2701 17015KT BKN008 TEMPO 2701/2706 19018G28KT 2000 RADZ BR OVC003 BECMG 2709/2711 20005KT SCT020
Röros (I32) B ENRO 261550Z AUTO VRB01KT 9999NDV NCD M01/M03 Q1003 TAF ENRO 261400Z 2615/2620 20005KT 9999 FEW015 BKN040
Skagen (L09/L27) ENSK 261550Z 30008KT 9999 SHRA SCT008 BKN013 06/05 Q0996
Sonderborg (I32/N14) EKSB 261550Z 21005KT 190V250 9999 -SHRA SCT018 BKN030 10/09 Q1015 TAF EKSB 261100Z 2612/2618 24010KT 9999 SCT020 TEMPO 2612/2615 SHRA SCT020CB
Sorkjosen (15/33) ENSR 261550Z VRB02KT 9999 FEW030 BKN043 M00/M05 Q1003 RMK WIND 1119FT 10013KT 040V160
Sorstokken (L15/V33) ENSO 261550Z 14013KT 9999 -SHRA FEW005 SCT012 BKN025 09/08 Q1005 TAF ENSO 261400Z 2615/2618 15015KT 9000 -RA SCT010 BKN020 PROB40 2615/2618 4000 RA BKN009
Stavanger (I11/I18/I36/V29) ENZV 261550Z 18009KT 9999 -SHRA FEW005 SCT019CB BKN030 10/08 Q1007 NOSIG TAF ENZV 2612/2712 17008KT 9999 -SHRA FEW018TCU BKN030 BECMG 2617/2619 16018KT BKN012 BECMG 2619/2621 17022G32KT 2500 RADZ BR SCT004 BKN008 BECMG 2701/2703 24015G25KT BECMG 2704/2706 24008KT 8000 NSW SCT008 BKN015 TEMPO 2706/2712 BKN008
Stokka (L21) ENST 261550Z 22010KT 9999 VCSH FEW008 FEW012CB SCT018 BKN025 08/08 Q0999 RMK WIND 300FT 23010KT
Svalbard (I10/L28) C ENSB 261550Z 12010KT 9999 FEW030 M10/M14 Q1021 RMK WIND 1400FT 15004KT TAF ENSB 2612/2712 12009KT 9999 FEW030
Svolvaer (L01) ENSH 261550Z 25002KT 9999 -RA FEW003 BKN006 06/05 Q0997 RMK WIND 150FT 18003KT TAF AMD ENSH 261518Z 2615/2621 VRB05KT 9999 -SHRA FEW006 BKN020 TEMPO 2615/2621 FEW003 BKN008
Torp (I18/I36) ENTO 261550Z 21004KT CAVOK 09/02 Q1008 NOSIG TAF ENTO 2612/2712 24010KT CAVOK BECMG 2622/2624 18015KT BKN008 TEMPO 2700/2705 20018G28KT 2000 RADZ BR OVC003 BECMG 2709/2711 SCT020
Tromsö (I01/I19) B ENTC 261550Z 28006KT 9999 FEW015 SCT030 BKN110 01/M02 Q1000 NOSIG RMK WIND 2600FT 10018KT ENTC 2612/2712 12005KT 9999 FEW020 BKN040 TEMPO 2612/2712 05012KT PROB30 TEMPO 2612/2618 4000 -SN VV014
Trondheim (I09/I27) B ENVA 261550Z 10005KT 9999 FEW046 05/04 Q1003 NOSIG RMK WIND 670FT 20011KT TAF AMD ENVA 2612/2712 VRB05KT 9999 FEW005 BKN070 PROB30 TEMPO 2612/2614 24012KT SHRA SCT005 BKN020CB BECMG 2618/2620 14010KT TEMPO 2700/2706 17018G28KT RA BECMG 2706/2708 24015KT TEMPO 2706/2710 RA BKN012
Uleåborg (I12/V30) EFOU 261550Z AUTO 25005KT 200V280 9999 -RA OVC004 04/04 Q0999 TAF AMD EFOU 261447Z 2615/2715 26006KT 8000 -DZ OVC005 TEMPO 2615/2617 2000 BR BKN001 TEMPO 2617/2622 2000 BR BKN001 TEMPO 2622/2702 1500 SN VV004 PROB40 2702/2708 BKN004 BECMG 2712/2714 BKN004 TEMPO 2714/2715 4000
Vamdrup (N01/N19) EKVD 261450Z 20006KT CAVOK 11/09 Q1014 TAF EKVD 261100Z 2612/2616 24010KT 9999 BKN020 TEMPO 2612/2614 SHRA SCT020CB
Vojens (I11/I29) EKSP 261550Z 19005KT 9999 FEW020TCU SCT120 BKN170 10/09 Q1015 TAF EKSP 261413Z 2615/2715 24010KT 9999 SCT020 BKN180 BECMG 2616/2618 21008KT BECMG 2620/2623 21012G22KT 3000 -RADZ BKN006 BECMG 2623/2702 23015KT 9000 NSW SCT008 BKN015 TEMPO 2702/2712 24016G26KT 5000 -DZ BR BKN012
Wasa (I16/V34) EFVA 261550Z AUTO 23008KT 9999 -SHRA OVC008 08/07 Q1001 TAF EFVA 261430Z 2615/2715 22009KT 9999 BKN010 PROB30 2615/2623 BKN015 BECMG 2701/2703 3000 BR BKN005 TEMPO 2703/2707 0500 FG VV002 BECMG 2707/2709 9999 NSW FEW010
Åbo (I26/V08) EFTU 261550Z AUTO 24008KT 9999 OVC005 08/08 Q1005 TAF EFTU 261430Z 2615/2715 22008KT 9999 OVC004 BECMG 2615/2617 BKN007 PROB40 TEMPO 2615/2617 5000 -DZ BECMG 2617/2619 SCT010 BKN034 PROB30 2701/2707 0500 FG VV001 BECMG 2710/2712 6000 RA
Ålborg (I08/I26) EKYT 261551Z 22007KT 9999 SCT047 10/08 Q1012 TAF EKYT 261414Z 2615/2715 25010KT 9999 SCT020 FM262100 20008KT 8000 -RADZ BKN015 TEMPO 2621/2715 3000 RADZ BR BKN008 BECMG 2704/2707 23012G25KT
Ålesund (I25/V07) B ENAL 261550Z 19012KT 9999 DZ SCT035 BKN049 09/06 Q1002 TAF ENAL 261400Z 2615/2621 18015KT 9999 -SHRA FEW020TCU BKN030 PROB30 TEMPO 2615/2617 19018G28KT 4000 SHRA BKN014CB BECMG 2618/2621 12010KT
Århus (I10/I28) EKAH 261550Z AUTO 22003KT 9999 NCD 10/08 Q1014 TAF EKAH 261100Z 2612/2712 24010KT 9999 SCT020 TEMPO 2612/2616 SHRA SCT020CB BECMG 2621/2624 4000 -RADZ BR BKN008 BECMG 2700/2703 7000 -DZ SCT012 BKN016 TEMPO 2703/2712 BKN010

EUROPE

AirportMETARTAF
Augsburg-EDMA (I25/G07) B EDMA 261550Z VRB01KT CAVOK 12/09 Q1024 TAF EDMA 261400Z 2615/2624 VRB03KT 9999 SCT025 BECMG 2618/2621 0500 FG VV002 PROB30 TEMPO 2620/2624 0250 FG VV001
Birmingham-EGBB (I15/I33) EGBB 261550Z 20008KT 160V230 9999 VCSH SCT011 BKN021 15/13 Q1015 TAF AMD EGBB 261443Z 2614/2712 21009KT 9999 SCT030 TEMPO 2614/2621 BKN014 PROB30 TEMPO 2619/2712 22015G25KT TEMPO 2621/2712 BKN012 PROB30 TEMPO 2623/2707 BKN009
Dortmund (I06/I24) EDLW 261550Z 22011KT 9999 BKN043 13/08 Q1021 TAF EDLW 261100Z 2612/2712 22011KT 9999 BKN020 PROB30 TEMPO 2701/2705 BKN010
Eindhoven-EHEH (I04/I22) EHEH 261555Z AUTO 21009KT 190V250 9999 FEW024 SCT140 BKN320 13/10 Q1020 BLU NOSIG TAF EHEH 261108Z 2612/2718 22010KT 6000 SCT015 BKN020 BECMG 2612/2615 SCT020 BKN030 TEMPO 2619/2704 SCT015 BKN020 PROB40 TEMPO 2619/2703 4000 BR -DZRA SCT006 BKN010 BECMG 2622/2708 21007KT
Kardla (N14/N32) B EEKA 261520Z 20005KT 150V230 4200 BR OVC003 09/09 Q1008 TAF EEKA 261200Z 2613/2619 21010KT 9999 OVC020 TEMPO 2613/2615 BKN007 SCT020CB TEMPO 2615/2619 3000 SHRA BKN005 SCT015CB BKN020 BECMG 2617/2619 27012KT
Krakow (I25) EPKK 261600Z VRB01KT CAVOK 09/03 Q1022 TAF EPKK 261430Z 2615/2715 24007KT CAVOK
Kuressaare (V17/V35) EEKE 261550Z 23005KT 190V280 8000 -RA BKN007 OVC016 09/09 Q1009 TAF EEKE 261400Z 2615/2621 24012KT 3000 RADZ BR BKN003 OVC010 TEMPO 2615/2619 1500 BR BECMG 2619/2621 8000 BKN010
Köln (I14/I24/I32) EDDK 261550Z 25008KT 220V290 9999 BKN035 14/08 Q1022 NOSIG TAF EDDK 261100Z 2612/2718 23008KT 9999 SCT025 BECMG 2617/2620 17005KT
Le Bourget-LFPB (I07/I27/L25/ 03/21/09) LFPB 261600Z AUTO 21007KT 9999 BKN027 BKN049 BKN096 15/11 Q1024 NOSIG TAF LFPB 261100Z 2612/2712 22010KT 9999 BKN018 PROB40 2700/2705 4000 BR BECMG 2705/2706 2000 BR BKN002 TEMPO 2706/2709 0300 FG VV/// BECMG 2709/2712 CAVOK
Linz-LOWL (I09/I27) LOWL 261550Z AUTO 28007KT 9999 FEW030 BKN040 11/08 Q1025 NOSIG TAF LOWL 261115Z 2612/2712 28005KT 9999 SCT050 SCT080 TX13/2613Z TN03/2700Z BECMG 2620/2623 3000 BECMG 2623/2702 1500 BCFG BKN002 TEMPO 2703/2709 0400 FG VV001 BECMG 2709/2711 10005KT CAVOK
Pardubice-LKPD (I27) LKPD 261600Z 09002KT 9999 BKN036 BKN050 11/04 Q1023 NOSIG RMK BLU BLU TAF LKPD 261100Z 2612/2712 VRB02KT CAVOK TEMPO 2622/2708 3000 MIFG BR BKN006 PROB40 TEMPO 2702/2706 0600 FG VV002
Prag-LKPR (I06/I13/I24/I31) LKPR 261600Z 26010KT 9999 BKN037 11/06 Q1023 NOSIG TAF LKPR 261100Z 2612/2718 22010KT CAVOK TEMPO 2612/2618 9999 BKN030 BECMG 2620/2622 4000 BR SCT003 TEMPO 2623/2708 2000 BR BKN003 PROB30 TEMPO 2623/2708 0800 FG OVC001 BECMG 2708/2710 CAVOK
Reykjavik-BIRK (I19/L13/ 01/06/24/31) BIRK 261600Z 08021G31KT 9999 VCSH FEW025 BKN068 OVC110 08/M01 Q0974 TAF BIRK 261334Z 2615/2715 09020G30KT 9999 SCT030 BKN045 TX07/2615Z TN04/2706Z TEMPO 2615/2709 RA BKN020 BECMG 2615/2617 05008KT BECMG 2621/2623 03015KT BECMG 2705/2707 11010KT
Salzburg-LOWS (I16) LOWS 261550Z 33005KT 300V360 9999 FEW026 SCT044 BKN050 12/08 Q1025 NOSIG TAF LOWS 261115Z 2612/2712 34005KT 9999 SCT050 TX13/2613Z TN05/2705Z TEMPO 2612/2707 BKN050 BECMG 2617/2619 15004KT BECMG 2708/2710 01005KT
St Petersburg (I10/I28) B ULLI 261600Z 22003MPS 9999 BKN015 BKN033 06/03 Q1010 R88/090060 NOSIG TAF ULLI 261353Z 2615/2715 23003MPS 6000 FEW010 BKN016 BECMG 2618/2620 BKN011 TEMPO 2620/2707 3000 -SHRA BKN006 BKN016CB BECMG 2707/2709 27005G13MPS FEW010 BKN016
Tallin (I08/I26) EETN 261550Z 21007KT 9000 -RA OVC007 08/07 Q1008 TEMPO 5000 RA BKN005 TAF EETN 261135Z 2612/2712 22012KT 9999 BKN017 TEMPO 2612/2617 4000 SHRA BKN010 SCT015CB TEMPO 2617/2624 1400 RADZ BR BKN003 OVC012 TEMPO 2700/2706 3000 BR BKN005 OVC015
Ulenurme (N26/C08) B EETU 261550Z AUTO 20009KT 9999 OVC032/// 07/04 Q1011
Vilnius EYVI 261550Z 19006KT 9999 OVC018 08/04 Q1017 NOSIG TAF COR EYVI 261102Z 2612/2712 20010KT 8000 BKN020 TEMPO 2612/2618 SCT010 BKN015 BECMG 2620/2621 BKN005 OVC010 TEMPO 2621/2706 3000 RA BR OVC005 BECMG 2706/2707 26010KT OVC005
Warszawa (I11/I33/V15/V29) EPWA 261600Z 20004KT CAVOK 10/05 Q1020 NOSIG TAF EPWA 261430Z 2615/2715 20010KT CAVOK BECMG 2618/2621 26007KT PROB40 TEMPO 2619/2624 4000 -RA BR BKN006 BKN012 TEMPO 2700/2707 4000 BR BKN005 BKN010 BECMG 2704/2707 20010KT
Wroclaw (I29) EPWR 261600Z VRB01KT 9999 BKN040 11/06 Q1022 TAF EPWR 261430Z 2615/2715 26010KT 9999 SCT040 BECMG 2700/2703 20006KT

OTHER

AirportMETARTAF